Wetterdaten: aktuell Dienstag, 03.05.2016 20:42
Datum Zeit Temperatur Feuchte Luftdruck Regen Wind Richtung Richtung Taupunkt Windchill
03.05.2016 20:42 11,6 C 54 % 1021,9 hPa 0,0 l/m 0,0 km/h (0 Bft) - - 0 2,6 C 11,6 C
03.05.2016 19:42 13,8 C 48 % 1020,7 hPa 0,0 l/m 0,0 km/h (0 Bft) - - 0 3,0 C 13,8 C
03.05.2016 18:03 17,0 C 42 % 1020,5 hPa 0,0 l/m 0,0 km/h (0 Bft) - - 0 4,0 C 17,0 C
03.05.2016 17:03 16,4 C 45 % 1020,5 hPa 0,0 l/m 0,0 km/h (0 Bft) - - 0 4,4 C 16,4 C
03.05.2016 16:03 15,9 C 47 % 1020,6 hPa 0,0 l/m 0,0 km/h (0 Bft) - - 0 4,6 C 15,9 C
03.05.2016 15:03 15,2 C 49 % 1019,6 hPa 0,0 l/m 0,0 km/h (0 Bft) - - 0 4,6 C 15,2 C
03.05.2016 14:03 15,5 C 57 % 1019,6 hPa 0,0 l/m 0,0 km/h (0 Bft) - - 0 7,0 C 15,5 C
03.05.2016 13:03 14,3 C 65 % 1018,6 hPa 0,0 l/m 0,0 km/h (0 Bft) - - 0 7,8 C 14,3 C
03.05.2016 12:03 12,5 C 72 % 1018,8 hPa 0,0 l/m 0,0 km/h (0 Bft) - - 0 7,6 C 12,5 C
03.05.2016 11:03 13,0 C 79 % 1018,8 hPa 0,0 l/m 0,0 km/h (0 Bft) - - 0 9,4 C 13,0 C
03.05.2016 10:03 12,0 C 81 % 1018,8 hPa 0,0 l/m 0,0 km/h (0 Bft) - - 0 8,8 C 12,0 C
03.05.2016 09:03 9,6 C 90 % 1018,0 hPa 0,0 l/m 0,0 km/h (0 Bft) - - 0 8,0 C 9,6 C
03.05.2016 08:03 9,0 C 89 % 1017,0 hPa 0,4 l/m 0,0 km/h (0 Bft) - - 0 7,3 C 9,0 C
03.05.2016 07:03 9,5 C 86 % 1016,0 hPa 1,8 l/m 0,0 km/h (0 Bft) - - 0 7,3 C 9,5 C
03.05.2016 06:03 10,4 C 83 % 1014,9 hPa 0,4 l/m 0,0 km/h (0 Bft) - - 0 7,6 C 10,4 C
03.05.2016 05:03 10,8 C 76 % 1015,9 hPa 0,0 l/m 0,0 km/h (0 Bft) - - 0 6,7 C 10,8 C
03.05.2016 04:03 11,2 C 72 % 1015,8 hPa 0,0 l/m 0,0 km/h (0 Bft) - - 0 6,3 C 11,2 C
03.05.2016 03:03 11,4 C 68 % 1015,8 hPa 0,0 l/m 0,0 km/h (0 Bft) - - 0 5,7 C 11,4 C
03.05.2016 02:03 11,7 C 63 % 1015,8 hPa 0,0 l/m 0,0 km/h (0 Bft) - - 0 4,9 C 11,7 C
03.05.2016 01:03 11,8 C 66 % 1015,8 hPa 0,0 l/m 0,0 km/h (0 Bft) - - 0 5,7 C 11,8 C
03.05.2016 00:03 12,7 C 65 % 1016,7 hPa 0,0 l/m 0,0 km/h (0 Bft) - - 0 6,3 C 12,7 C
02.05.2016 23:03 13,4 C 64 % 1016,7 hPa 0,0 l/m 0,0 km/h (0 Bft) - - 0 6,7 C 13,4 C
02.05.2016 22:03 14,6 C 60 % 1016,6 hPa 0,0 l/m 0,0 km/h (0 Bft) - - 0 6,9 C 14,6 C
02.05.2016 21:03 16,1 C 56 % 1016,5 hPa 0,0 l/m 0,0 km/h (0 Bft) - - 0 7,3 C 16,1 C
02.05.2016 21:00 16,2 C 55 % 1016,4 hPa 0,0 l/m 0,0 km/h (0 Bft) - - 0 7,2 C 16,2 C
_ Min-Zeit 07:39 17:30 04:45 - 21:00 - - 20:42 07:39
Minimum _ 8,9 C 41 % 1014,8 hPa - 0,0 km/h (0 Bft) - - 2,6 C 8,9 C
_ Max-Zeit 18:00 08:57 20:42 06:00 21:00 - - 11:12 18:00
Maximum _ 17,0 C 90 % 1021,9 hPa 0,4 l/m 0,0 km/h
- - (0 Bft)
- - 10,1 C 17,0 C
Durchschnitt _ 13,1 C 65 % 1017,8 hPa #2,5 l/m 0,0 km/h (0 Bft) - - - 6,3 C 13,1 C